x

Ilm3 - 27 Miles Se Of Wrightsville Beach, Nc (41037) Weather Station

3:08 - Sat 25th Feb 2017 All times are EST. -5 hours from GMT.

  • Wind
    4mph, 9mph gusts
  • Sea Temp 66°f
  • Luft Temp 65°f
  • Sea Pressure 1007.9mb
  • Ilm3 - 27 Miles Se Of Wrightsville Beach, Nc
  • Ilm3 - 27 Miles Se Of Wrightsville Beach, Nc

More Historic Weather Station data

Upgrade to MSW Pro to gain access to the past 30 days of data for over 8000 Wavebouys and Weather Stations around the globe.

Join Pro

Comparision Forecast

View Surf forecast
   
Sa 02/25 3:08 4 9 mph 1007.9mb 66f 65f
2:08 7 11 mph 1008mb 66f 64f
1:08 2 7 mph 1008.6mb 66f 67f
12:08 2 7 mph 1009.1mb 66f 68f
Fr 02/24 11:08 4 9 mph 1009.3mb 66f 68f
10:08 7 11 mph 1009mb 67f 68f
9:08 7 11 mph 1009.4mb 67f 68f
8:08 9 11 mph 1009.9mb 67f 68f
7:08 9 13 mph 1010.4mb 68f 67f
6:08 7 11 mph 1010mb 68f 68f
5:08 7 11 mph 1009.9mb 67f 69f
4:08 11 16 mph 1009.8mb 67f 68f
3:08 11 18 mph 1009.8mb 67f 68f
2:08 11 16 mph 1010.6mb 67f 68f
1:08 11 16 mph 1010.8mb 67f 67f
12:08 11 18 mph 1011.5mb 66f 67f
11:08 13 20 mph 1012.2mb 66f 66f
10:08 16 25 mph 1012.1mb 66f 66f
9:08 13 18 mph 1012.3mb 66f 66f
8:08 11 18 mph 1011.7mb 66f 67f
7:08 11 16 mph 1011.1mb 66f 66f
6:08 9 13 mph 1011.3mb 66f 67f
5:08 9 16 mph 1010.8mb 66f 66f
4:08 9 16 mph 1011.3mb 66f 66f
3:08 4 11 mph 1011.2mb 66f 67f
2:08 4 7 mph 1010.8mb 66f 67f
1:08 11 18 mph 1011.2mb 66f 67f
12:08 9 16 mph 1011.3mb 66f 68f
Do 02/23 11:08 11 16 mph 1012mb 66f 69f
10:08 7 9 mph 1011.8mb 66f 68f
9:08 7 11 mph 1011.8mb 67f 68f
8:08 7 11 mph 1011.3mb 67f 68f
7:08 9 13 mph 1010.9mb 67f 69f
6:08 4 9 mph 1011.4mb 67f 68f
5:08 9 13 mph 1011.1mb 67f 69f
4:08 9 13 mph 1010.6mb 67f 69f
3:08 9 16 mph 1010.8mb 67f 67f
2:08 13 20 mph 1012.2mb 66f 68f
1:08 13 18 mph 1012.7mb 66f 68f
12:08 16 22 mph 1013.4mb 66f 68f
11:08 11 18 mph 1013.2mb 66f 69f
10:08 9 13 mph 1013.1mb 65f 68f
9:08 13 18 mph 1013.2mb 65f 67f
8:08 13 20 mph 1012.7mb 65f 67f
7:08 9 13 mph 1012mb 65f 66f
6:08 16 25 mph 1011.7mb 65f 66f
5:08 11 20 mph 1011.3mb 65f 67f
Mi 02/22 5:08 11 16 mph 1015.9mb 64f 66f
4:08 11 16 mph 1015.8mb 64f 66f
3:08 11 18 mph 1016.2mb 65f 66f
2:08 13 18 mph 1016.4mb 65f 66f
1:08 11 18 mph 1017.2mb 65f 66f
12:08 11 16 mph 1017.7mb 65f 66f
Di 02/21 11:08 13 18 mph 1018.3mb 65f 66f
10:08 13 20 mph 1018.9mb 64f 66f
9:08 16 25 mph 1019.5mb 64f 65f
8:08 16 20 mph 1019.4mb 64f 66f
7:08 11 20 mph 1019.5mb 64f 65f
6:08 11 16 mph 1019.5mb 64f 64f
5:08 13 16 mph 1019.8mb 64f 63f
4:08 13 20 mph 1020.2mb 64f 62f
3:08 16 20 mph 1019.9mb 64f 62f
2:08 16 22 mph 1020.4mb 63f 61f
1:08 16 20 mph 1021.1mb 63f 60f
12:08 16 22 mph 1022mb 63f 60f
11:08 16 22 mph 1023.6mb 63f 59f
10:08 16 25 mph 1023.2mb 63f 59f